sensor_id;sensor_type;location;lat;lon;timestamp;pressure;altitude;pressure_sealevel;temperature;humidity
30598;BME280;17365;48.878;8.334;2023-04-23T00:00:47;99493.06;;;13.69;99.63
30598;BME280;17365;48.878;8.334;2023-04-23T00:03:13;99488.72;;;13.70;100.00
30598;BME280;17365;48.878;8.334;2023-04-23T00:05:39;99488.38;;;13.87;99.31
30598;BME280;17365;48.878;8.334;2023-04-23T00:08:06;99487.16;;;13.63;100.00
30598;BME280;17365;48.878;8.334;2023-04-23T00:10:31;99485.97;;;13.78;100.00
30598;BME280;17365;48.878;8.334;2023-04-23T00:12:57;99488.59;;;13.76;100.00
30598;BME280;17365;48.878;8.334;2023-04-23T00:15:22;99493.75;;;13.36;100.00
30598;BME280;17365;48.878;8.334;2023-04-23T00:17:48;99492.16;;;13.29;100.00
30598;BME280;17365;48.878;8.334;2023-04-23T00:20:14;99493.66;;;13.42;100.00
30598;BME280;17365;48.878;8.334;2023-04-23T00:22:40;99491.94;;;13.41;100.00
30598;BME280;17365;48.878;8.334;2023-04-23T00:25:05;99495.75;;;13.66;100.00
30598;BME280;17365;48.878;8.334;2023-04-23T00:27:31;99494.50;;;13.43;100.00
30598;BME280;17365;48.878;8.334;2023-04-23T00:29:56;99490.34;;;13.32;100.00
30598;BME280;17365;48.878;8.334;2023-04-23T00:32:21;99499.13;;;13.70;100.00
30598;BME280;17365;48.878;8.334;2023-04-23T00:34:46;99495.34;;;13.43;100.00
30598;BME280;17365;48.878;8.334;2023-04-23T00:37:13;99496.50;;;13.30;100.00
30598;BME280;17365;48.878;8.334;2023-04-23T00:39:38;99496.94;;;13.52;100.00
30598;BME280;17365;48.878;8.334;2023-04-23T00:42:03;99498.09;;;13.35;100.00
30598;BME280;17365;48.878;8.334;2023-04-23T00:44:36;99504.38;;;13.27;100.00
30598;BME280;17365;48.878;8.334;2023-04-23T00:47:01;99497.25;;;13.35;100.00
30598;BME280;17365;48.878;8.334;2023-04-23T00:49:26;99502.78;;;13.17;100.00
30598;BME280;17365;48.878;8.334;2023-04-23T00:51:52;99508.03;;;13.13;100.00
30598;BME280;17365;48.878;8.334;2023-04-23T00:54:17;99506.19;;;13.22;100.00
30598;BME280;17365;48.878;8.334;2023-04-23T00:56:42;99497.41;;;13.27;100.00
30598;BME280;17365;48.878;8.334;2023-04-23T00:59:08;99494.84;;;13.24;100.00
30598;BME280;17365;48.878;8.334;2023-04-23T01:01:33;99507.13;;;13.16;100.00
30598;BME280;17365;48.878;8.334;2023-04-23T01:03:59;99505.69;;;13.00;100.00
30598;BME280;17365;48.878;8.334;2023-04-23T01:06:25;99496.75;;;13.15;100.00
30598;BME280;17365;48.878;8.334;2023-04-23T01:08:52;99489.53;;;13.30;100.00
30598;BME280;17365;48.878;8.334;2023-04-23T01:11:17;99497.44;;;13.24;100.00
30598;BME280;17365;48.878;8.334;2023-04-23T01:13:43;99493.09;;;13.26;100.00
30598;BME280;17365;48.878;8.334;2023-04-23T01:16:09;99491.41;;;13.22;100.00
30598;BME280;17365;48.878;8.334;2023-04-23T01:18:35;99494.88;;;13.23;100.00
30598;BME280;17365;48.878;8.334;2023-04-23T01:21:00;99493.19;;;13.20;100.00
30598;BME280;17365;48.878;8.334;2023-04-23T01:23:26;99502.91;;;13.09;100.00
30598;BME280;17365;48.878;8.334;2023-04-23T01:25:52;99498.34;;;13.23;100.00
30598;BME280;17365;48.878;8.334;2023-04-23T01:28:17;99498.44;;;13.17;100.00
30598;BME280;17365;48.878;8.334;2023-04-23T01:30:43;99496.94;;;13.04;100.00
30598;BME280;17365;48.878;8.334;2023-04-23T01:33:09;99496.94;;;13.04;100.00
30598;BME280;17365;48.878;8.334;2023-04-23T01:35:35;99496.16;;;12.99;100.00
30598;BME280;17365;48.878;8.334;2023-04-23T01:38:01;99503.22;;;12.91;100.00
30598;BME280;17365;48.878;8.334;2023-04-23T01:40:27;99506.34;;;13.11;100.00
30598;BME280;17365;48.878;8.334;2023-04-23T01:42:52;99508.59;;;12.83;100.00
30598;BME280;17365;48.878;8.334;2023-04-23T01:45:17;99503.06;;;13.00;100.00
30598;BME280;17365;48.878;8.334;2023-04-23T01:47:45;99506.72;;;12.91;100.00
30598;BME280;17365;48.878;8.334;2023-04-23T01:50:11;99511.00;;;12.94;100.00
30598;BME280;17365;48.878;8.334;2023-04-23T01:52:37;99511.94;;;12.90;100.00
30598;BME280;17365;48.878;8.334;2023-04-23T01:55:02;99512.13;;;12.79;100.00
30598;BME280;17365;48.878;8.334;2023-04-23T01:57:28;99513.91;;;12.75;100.00
30598;BME280;17365;48.878;8.334;2023-04-23T01:59:54;99517.47;;;12.71;100.00
30598;BME280;17365;48.878;8.334;2023-04-23T02:02:22;99512.97;;;12.79;100.00
30598;BME280;17365;48.878;8.334;2023-04-23T02:04:48;99517.31;;;12.79;100.00
30598;BME280;17365;48.878;8.334;2023-04-23T02:07:14;99518.22;;;12.78;100.00
30598;BME280;17365;48.878;8.334;2023-04-23T02:09:39;99510.66;;;12.63;100.00
30598;BME280;17365;48.878;8.334;2023-04-23T02:12:04;99511.31;;;12.75;100.00
30598;BME280;17365;48.878;8.334;2023-04-23T02:14:30;99503.44;;;12.80;100.00
30598;BME280;17365;48.878;8.334;2023-04-23T02:16:55;99502.88;;;12.61;100.00
30598;BME280;17365;48.878;8.334;2023-04-23T02:19:22;99507.97;;;12.69;100.00
30598;BME280;17365;48.878;8.334;2023-04-23T02:21:47;99506.03;;;12.78;100.00
30598;BME280;17365;48.878;8.334;2023-04-23T02:24:12;99508.84;;;12.68;100.00
30598;BME280;17365;48.878;8.334;2023-04-23T02:26:37;99514.88;;;12.68;100.00
30598;BME280;17365;48.878;8.334;2023-04-23T02:29:02;99506.00;;;12.83;100.00
30598;BME280;17365;48.878;8.334;2023-04-23T02:31:28;99504.97;;;12.92;100.00
30598;BME280;17365;48.878;8.334;2023-04-23T02:33:53;99510.19;;;12.92;100.00
30598;BME280;17365;48.878;8.334;2023-04-23T02:36:18;99501.63;;;12.83;100.00
30598;BME280;17365;48.878;8.334;2023-04-23T02:38:43;99504.06;;;12.94;100.00
30598;BME280;17365;48.878;8.334;2023-04-23T02:41:09;99507.38;;;13.04;100.00
30598;BME280;17365;48.878;8.334;2023-04-23T02:43:35;99502.41;;;12.89;100.00
30598;BME280;17365;48.878;8.334;2023-04-23T02:46:00;99500.56;;;12.95;100.00
30598;BME280;17365;48.878;8.334;2023-04-23T02:48:33;99498.72;;;13.00;100.00
30598;BME280;17365;48.878;8.334;2023-04-23T02:50:58;99497.88;;;13.00;100.00
30598;BME280;17365;48.878;8.334;2023-04-23T02:53:24;99489.88;;;13.10;100.00
30598;BME280;17365;48.878;8.334;2023-04-23T02:55:49;99488.47;;;12.93;100.00
30598;BME280;17365;48.878;8.334;2023-04-23T02:58:14;99490.22;;;12.91;100.00
30598;BME280;17365;48.878;8.334;2023-04-23T03:00:40;99488.53;;;12.88;100.00
30598;BME280;17365;48.878;8.334;2023-04-23T03:03:05;99491.97;;;12.92;100.00
30598;BME280;17365;48.878;8.334;2023-04-23T03:05:30;99492.91;;;12.86;100.00
30598;BME280;17365;48.878;8.334;2023-04-23T03:07:55;99499.09;;;12.80;100.00
30598;BME280;17365;48.878;8.334;2023-04-23T03:10:21;99501.41;;;12.97;100.00
30598;BME280;17365;48.878;8.334;2023-04-23T03:12:46;99502.09;;;13.07;100.00
30598;BME280;17365;48.878;8.334;2023-04-23T03:15:11;99512.38;;;13.13;100.00
30598;BME280;17365;48.878;8.334;2023-04-23T03:17:36;99512.44;;;13.10;100.00
30598;BME280;17365;48.878;8.334;2023-04-23T03:20:02;99501.72;;;12.77;100.00
30598;BME280;17365;48.878;8.334;2023-04-23T03:22:27;99510.38;;;12.79;100.00
30598;BME280;17365;48.878;8.334;2023-04-23T03:24:52;99514.06;;;12.66;100.00
30598;BME280;17365;48.878;8.334;2023-04-23T03:27:18;99523.00;;;12.50;100.00
30598;BME280;17365;48.878;8.334;2023-04-23T03:29:43;99517.00;;;12.45;100.00
30598;BME280;17365;48.878;8.334;2023-04-23T03:32:08;99520.75;;;12.82;100.00
30598;BME280;17365;48.878;8.334;2023-04-23T03:34:33;99524.16;;;12.86;100.00
30598;BME280;17365;48.878;8.334;2023-04-23T03:36:59;99529.81;;;13.09;100.00
30598;BME280;17365;48.878;8.334;2023-04-23T03:39:24;99522.06;;;13.06;100.00
30598;BME280;17365;48.878;8.334;2023-04-23T03:41:49;99523.50;;;13.26;100.00
30598;BME280;17365;48.878;8.334;2023-04-23T03:44:14;99518.25;;;13.27;100.00
30598;BME280;17365;48.878;8.334;2023-04-23T03:46:39;99517.50;;;13.21;100.00
30598;BME280;17365;48.878;8.334;2023-04-23T03:49:05;99524.22;;;13.32;100.00
30598;BME280;17365;48.878;8.334;2023-04-23T03:51:30;99519.59;;;12.99;100.00
30598;BME280;17365;48.878;8.334;2023-04-23T03:53:55;99526.38;;;13.07;100.00
30598;BME280;17365;48.878;8.334;2023-04-23T03:56:20;99524.00;;;12.95;100.00
30598;BME280;17365;48.878;8.334;2023-04-23T03:58:47;99527.78;;;13.28;100.00
30598;BME280;17365;48.878;8.334;2023-04-23T04:01:13;99528.03;;;13.11;100.00
30598;BME280;17365;48.878;8.334;2023-04-23T04:03:38;99525.41;;;13.15;100.00
30598;BME280;17365;48.878;8.334;2023-04-23T04:06:03;99532.16;;;13.25;100.00
30598;BME280;17365;48.878;8.334;2023-04-23T04:08:28;99531.41;;;13.20;100.00
30598;BME280;17365;48.878;8.334;2023-04-23T04:10:54;99531.22;;;13.30;100.00
30598;BME280;17365;48.878;8.334;2023-04-23T04:13:19;99531.22;;;13.30;100.00
30598;BME280;17365;48.878;8.334;2023-04-23T04:15:44;99532.84;;;13.34;100.00
30598;BME280;17365;48.878;8.334;2023-04-23T04:18:09;99526.22;;;13.17;100.00
30598;BME280;17365;48.878;8.334;2023-04-23T04:20:35;99523.59;;;13.20;100.00
30598;BME280;17365;48.878;8.334;2023-04-23T04:23:00;99529.91;;;13.05;100.00
30598;BME280;17365;48.878;8.334;2023-04-23T04:25:25;99530.81;;;13.04;100.00
30598;BME280;17365;48.878;8.334;2023-04-23T04:27:52;99528.75;;;13.23;100.00
30598;BME280;17365;48.878;8.334;2023-04-23T04:30:18;99527.06;;;13.20;100.00
30598;BME280;17365;48.878;8.334;2023-04-23T04:32:43;99527.88;;;12.71;100.00
30598;BME280;17365;48.878;8.334;2023-04-23T04:35:09;99530.34;;;12.80;100.00
30598;BME280;17365;48.878;8.334;2023-04-23T04:37:36;99524.84;;;12.96;100.00
30598;BME280;17365;48.878;8.334;2023-04-23T04:40:02;99524.22;;;12.83;100.00
30598;BME280;17365;48.878;8.334;2023-04-23T04:42:28;99533.13;;;12.70;100.00
30598;BME280;17365;48.878;8.334;2023-04-23T04:44:53;99529.41;;;12.83;100.00
30598;BME280;17365;48.878;8.334;2023-04-23T04:47:18;99519.88;;;12.83;100.00
30598;BME280;17365;48.878;8.334;2023-04-23T04:49:43;99520.44;;;12.99;100.00
30598;BME280;17365;48.878;8.334;2023-04-23T04:52:09;99521.16;;;13.09;100.00
30598;BME280;17365;48.878;8.334;2023-04-23T04:54:35;99508.66;;;12.78;100.00
30598;BME280;17365;48.878;8.334;2023-04-23T04:57:00;99508.78;;;12.72;100.00
30598;BME280;17365;48.878;8.334;2023-04-23T04:59:26;99513.88;;;12.80;100.00
30598;BME280;17365;48.878;8.334;2023-04-23T05:01:51;99512.09;;;12.82;100.00
30598;BME280;17365;48.878;8.334;2023-04-23T05:04:17;99512.31;;;12.67;100.00
30598;BME280;17365;48.878;8.334;2023-04-23T05:06:42;99521.97;;;12.60;100.00
30598;BME280;17365;48.878;8.334;2023-04-23T05:09:08;99525.31;;;12.70;100.00
30598;BME280;17365;48.878;8.334;2023-04-23T05:11:34;99529.88;;;12.54;100.00
30598;BME280;17365;48.878;8.334;2023-04-23T05:13:59;99523.63;;;12.64;100.00
30598;BME280;17365;48.878;8.334;2023-04-23T05:16:25;99523.22;;;12.89;100.00
30598;BME280;17365;48.878;8.334;2023-04-23T05:18:50;99519.72;;;12.93;100.00
30598;BME280;17365;48.878;8.334;2023-04-23T05:21:16;99514.94;;;13.16;100.00
30598;BME280;17365;48.878;8.334;2023-04-23T05:23:41;99516.19;;;12.95;100.00
30598;BME280;17365;48.878;8.334;2023-04-23T05:26:06;99510.31;;;12.84;100.00
30598;BME280;17365;48.878;8.334;2023-04-23T05:28:31;99516.66;;;12.66;100.00
30598;BME280;17365;48.878;8.334;2023-04-23T05:30:57;99520.34;;;12.53;100.00
30598;BME280;17365;48.878;8.334;2023-04-23T05:33:22;99516.19;;;12.41;100.00
30598;BME280;17365;48.878;8.334;2023-04-23T05:35:47;99513.25;;;12.64;100.00
30598;BME280;17365;48.878;8.334;2023-04-23T05:38:13;99514.66;;;12.83;100.00
30598;BME280;17365;48.878;8.334;2023-04-23T05:40:38;99505.81;;;12.94;100.00
30598;BME280;17365;48.878;8.334;2023-04-23T05:43:03;99503.41;;;13.31;100.00
30598;BME280;17365;48.878;8.334;2023-04-23T05:45:30;99510.69;;;13.58;100.00
30598;BME280;17365;48.878;8.334;2023-04-23T05:47:55;99505.47;;;13.12;100.00
30598;BME280;17365;48.878;8.334;2023-04-23T05:50:20;99504.66;;;13.08;100.00
30598;BME280;17365;48.878;8.334;2023-04-23T05:52:46;99510.00;;;13.90;100.00
30598;BME280;17365;48.878;8.334;2023-04-23T05:55:11;99505.19;;;14.12;100.00
30598;BME280;17365;48.878;8.334;2023-04-23T05:57:39;99499.28;;;14.06;100.00
30598;BME280;17365;48.878;8.334;2023-04-23T06:00:05;99513.78;;;13.77;100.00
30598;BME280;17365;48.878;8.334;2023-04-23T06:02:33;99502.81;;;14.02;100.00
30598;BME280;17365;48.878;8.334;2023-04-23T06:04:58;99508.44;;;13.83;100.00
30598;BME280;17365;48.878;8.334;2023-04-23T06:07:24;99498.50;;;14.01;100.00
30598;BME280;17365;48.878;8.334;2023-04-23T06:09:49;99504.81;;;13.90;100.00
30598;BME280;17365;48.878;8.334;2023-04-23T06:12:14;99513.75;;;13.79;100.00
30598;BME280;17365;48.878;8.334;2023-04-23T06:14:40;99503.00;;;13.92;100.00
30598;BME280;17365;48.878;8.334;2023-04-23T06:17:05;99512.69;;;13.87;100.00
30598;BME280;17365;48.878;8.334;2023-04-23T06:19:30;99505.50;;;13.98;100.00
30598;BME280;17365;48.878;8.334;2023-04-23T06:21:56;99505.00;;;13.83;99.62
30598;BME280;17365;48.878;8.334;2023-04-23T06:24:21;99499.56;;;13.92;100.00
30598;BME280;17365;48.878;8.334;2023-04-23T06:26:46;99495.56;;;14.16;99.65
30598;BME280;17365;48.878;8.334;2023-04-23T06:29:12;99505.00;;;14.21;98.86
30598;BME280;17365;48.878;8.334;2023-04-23T06:31:37;99507.09;;;14.06;98.91
30598;BME280;17365;48.878;8.334;2023-04-23T06:34:03;99512.25;;;13.67;100.00
30598;BME280;17365;48.878;8.334;2023-04-23T06:36:28;99513.25;;;14.02;100.00
30598;BME280;17365;48.878;8.334;2023-04-23T06:38:53;99504.66;;;13.98;100.00
30598;BME280;17365;48.878;8.334;2023-04-23T06:41:19;99495.06;;;13.98;100.00
30598;BME280;17365;48.878;8.334;2023-04-23T06:43:44;99484.56;;;14.02;99.63
30598;BME280;17365;48.878;8.334;2023-04-23T06:46:12;99490.06;;;14.28;97.20
30598;BME280;17365;48.878;8.334;2023-04-23T06:48:37;99490.03;;;14.67;95.95
30598;BME280;17365;48.878;8.334;2023-04-23T06:51:02;99487.69;;;14.90;94.79
30598;BME280;17365;48.878;8.334;2023-04-23T06:53:27;99488.53;;;14.91;91.64
30598;BME280;17365;48.878;8.334;2023-04-23T06:55:53;99481.03;;;14.78;92.00
30598;BME280;17365;48.878;8.334;2023-04-23T06:58:18;99480.63;;;14.60;90.21
30598;BME280;17365;48.878;8.334;2023-04-23T07:00:43;99483.00;;;14.69;90.69
30598;BME280;17365;48.878;8.334;2023-04-23T07:03:09;99481.28;;;15.02;88.21
30598;BME280;17365;48.878;8.334;2023-04-23T07:05:34;99482.28;;;15.29;87.66
30598;BME280;17365;48.878;8.334;2023-04-23T07:08:00;99482.91;;;15.38;88.43
30598;BME280;17365;48.878;8.334;2023-04-23T07:10:25;99471.97;;;15.55;88.04
30598;BME280;17365;48.878;8.334;2023-04-23T07:12:50;99478.81;;;15.28;88.94
30598;BME280;17365;48.878;8.334;2023-04-23T07:15:15;99473.03;;;15.19;88.38
30598;BME280;17365;48.878;8.334;2023-04-23T07:17:40;99479.72;;;14.96;88.75
30598;BME280;17365;48.878;8.334;2023-04-23T07:20:06;99474.94;;;15.43;88.16
30598;BME280;17365;48.878;8.334;2023-04-23T07:22:32;99475.63;;;15.19;86.81
30598;BME280;17365;48.878;8.334;2023-04-23T07:24:57;99474.28;;;15.35;87.71
30598;BME280;17365;48.878;8.334;2023-04-23T07:27:23;99470.13;;;15.59;84.23
30598;BME280;17365;48.878;8.334;2023-04-23T07:29:48;99478.19;;;15.51;83.13
30598;BME280;17365;48.878;8.334;2023-04-23T07:32:13;99465.97;;;15.83;83.78
30598;BME280;17365;48.878;8.334;2023-04-23T07:34:38;99467.00;;;15.46;83.18
30598;BME280;17365;48.878;8.334;2023-04-23T07:37:04;99467.69;;;15.22;84.06
30598;BME280;17365;48.878;8.334;2023-04-23T07:39:30;99460.00;;;15.15;84.17
30598;BME280;17365;48.878;8.334;2023-04-23T07:41:56;99463.63;;;15.42;84.61
30598;BME280;17365;48.878;8.334;2023-04-23T07:44:22;99450.63;;;15.41;84.35
30598;BME280;17365;48.878;8.334;2023-04-23T07:46:47;99454.41;;;16.18;82.08
30598;BME280;17365;48.878;8.334;2023-04-23T07:49:12;99450.38;;;16.36;81.21
30598;BME280;17365;48.878;8.334;2023-04-23T07:51:38;99458.41;;;16.01;80.06
30598;BME280;17365;48.878;8.334;2023-04-23T07:54:03;99453.16;;;16.29;78.68
30598;BME280;17365;48.878;8.334;2023-04-23T07:56:28;99448.94;;;16.52;77.52
30598;BME280;17365;48.878;8.334;2023-04-23T07:58:56;99451.56;;;16.52;76.99
30598;BME280;17365;48.878;8.334;2023-04-23T08:01:22;99453.56;;;16.17;75.09
30598;BME280;17365;48.878;8.334;2023-04-23T08:03:47;99451.22;;;15.80;75.84
30598;BME280;17365;48.878;8.334;2023-04-23T08:06:13;99450.88;;;16.19;76.02
30598;BME280;17365;48.878;8.334;2023-04-23T08:08:38;99441.13;;;15.68;76.94
30598;BME280;17365;48.878;8.334;2023-04-23T08:11:04;99437.72;;;15.35;76.04
30598;BME280;17365;48.878;8.334;2023-04-23T08:13:29;99432.66;;;15.60;77.48
30598;BME280;17365;48.878;8.334;2023-04-23T08:15:55;99437.25;;;16.09;76.82
30598;BME280;17365;48.878;8.334;2023-04-23T08:18:20;99435.63;;;16.05;74.70
30598;BME280;17365;48.878;8.334;2023-04-23T08:20:45;99426.06;;;16.32;74.94
30598;BME280;17365;48.878;8.334;2023-04-23T08:23:10;99424.31;;;15.77;76.65
30598;BME280;17365;48.878;8.334;2023-04-23T08:25:35;99413.44;;;16.17;76.59
30598;BME280;17365;48.878;8.334;2023-04-23T08:28:01;99418.91;;;16.11;73.90
30598;BME280;17365;48.878;8.334;2023-04-23T08:30:27;99422.31;;;16.13;74.71
30598;BME280;17365;48.878;8.334;2023-04-23T08:32:52;99419.34;;;16.23;73.47
30598;BME280;17365;48.878;8.334;2023-04-23T08:35:18;99418.78;;;16.68;73.50
30598;BME280;17365;48.878;8.334;2023-04-23T08:37:43;99412.31;;;16.78;73.30
30598;BME280;17365;48.878;8.334;2023-04-23T08:40:09;99414.56;;;16.89;71.86
30598;BME280;17365;48.878;8.334;2023-04-23T08:45:15;99405.75;;;17.15;69.13
30598;BME280;17365;48.878;8.334;2023-04-23T08:47:40;99404.31;;;17.77;68.34
30598;BME280;17365;48.878;8.334;2023-04-23T08:50:12;99409.41;;;17.81;64.24
30598;BME280;17365;48.878;8.334;2023-04-23T08:52:39;99404.78;;;17.17;66.71
30598;BME280;17365;48.878;8.334;2023-04-23T08:55:06;99405.03;;;17.35;65.65
30598;BME280;17365;48.878;8.334;2023-04-23T08:57:34;99405.31;;;16.79;64.40
30598;BME280;17365;48.878;8.334;2023-04-23T09:00:02;99402.81;;;16.23;67.02
30598;BME280;17365;48.878;8.334;2023-04-23T09:02:29;99401.94;;;16.49;67.01
30598;BME280;17365;48.878;8.334;2023-04-23T09:04:55;99400.31;;;16.96;65.38
30598;BME280;17365;48.878;8.334;2023-04-23T09:07:21;99387.75;;;17.06;64.15
30598;BME280;17365;48.878;8.334;2023-04-23T09:09:47;99395.78;;;17.25;65.77
30598;BME280;17365;48.878;8.334;2023-04-23T09:12:13;99397.16;;;17.82;62.66
30598;BME280;17365;48.878;8.334;2023-04-23T09:14:41;99403.94;;;17.17;61.88
30598;BME280;17365;48.878;8.334;2023-04-23T09:17:07;99401.63;;;17.08;61.94
30598;BME280;17365;48.878;8.334;2023-04-23T09:19:32;99393.25;;;16.73;62.80
30598;BME280;17365;48.878;8.334;2023-04-23T09:21:57;99378.03;;;17.33;62.10
30598;BME280;17365;48.878;8.334;2023-04-23T09:24:25;99381.06;;;17.89;61.54
30598;BME280;17365;48.878;8.334;2023-04-23T09:26:50;99368.50;;;18.19;60.73
30598;BME280;17365;48.878;8.334;2023-04-23T09:29:17;99367.16;;;17.42;62.49
30598;BME280;17365;48.878;8.334;2023-04-23T09:31:46;99357.25;;;17.50;60.76
30598;BME280;17365;48.878;8.334;2023-04-23T09:34:13;99355.84;;;17.63;59.71
30598;BME280;17365;48.878;8.334;2023-04-23T09:36:39;99349.09;;;18.23;57.07
30598;BME280;17365;48.878;8.334;2023-04-23T09:39:10;99344.50;;;18.28;57.69
30598;BME280;17365;48.878;8.334;2023-04-23T09:41:36;99338.72;;;18.61;56.23
30598;BME280;17365;48.878;8.334;2023-04-23T09:44:01;99337.72;;;19.04;55.80
30598;BME280;17365;48.878;8.334;2023-04-23T09:46:37;99330.84;;;19.39;54.38
30598;BME280;17365;48.878;8.334;2023-04-23T09:49:03;99328.16;;;18.83;52.90
30598;BME280;17365;48.878;8.334;2023-04-23T09:51:30;99327.81;;;18.50;55.23
30598;BME280;17365;48.878;8.334;2023-04-23T09:53:55;99322.88;;;18.22;55.27
30598;BME280;17365;48.878;8.334;2023-04-23T09:56:20;99322.44;;;18.73;54.57
30598;BME280;17365;48.878;8.334;2023-04-23T09:58:45;99322.44;;;18.73;54.04
30598;BME280;17365;48.878;8.334;2023-04-23T10:01:11;99319.25;;;18.46;55.20
30598;BME280;17365;48.878;8.334;2023-04-23T10:03:42;99323.97;;;18.58;54.31
30598;BME280;17365;48.878;8.334;2023-04-23T10:06:12;99312.25;;;19.24;53.65
30598;BME280;17365;48.878;8.334;2023-04-23T10:08:37;99309.50;;;19.08;53.04
30598;BME280;17365;48.878;8.334;2023-04-23T10:11:03;99304.25;;;18.48;53.89
30598;BME280;17365;48.878;8.334;2023-04-23T10:13:29;99302.91;;;18.79;53.30
30598;BME280;17365;48.878;8.334;2023-04-23T10:15:54;99295.56;;;19.25;52.46
30598;BME280;17365;48.878;8.334;2023-04-23T10:18:20;99297.69;;;19.35;52.26
30598;BME280;17365;48.878;8.334;2023-04-23T10:20:46;99292.63;;;19.68;52.17
30598;BME280;17365;48.878;8.334;2023-04-23T10:23:12;99291.31;;;19.22;49.91
30598;BME280;17365;48.878;8.334;2023-04-23T10:25:38;99288.31;;;19.30;50.67
30598;BME280;17365;48.878;8.334;2023-04-23T10:28:05;99286.22;;;19.74;50.65
30598;BME280;17365;48.878;8.334;2023-04-23T10:30:32;99285.56;;;18.95;49.76
30598;BME280;17365;48.878;8.334;2023-04-23T10:32:57;99284.41;;;19.01;48.95
30598;BME280;17365;48.878;8.334;2023-04-23T10:35:24;99284.91;;;19.09;49.97
30598;BME280;17365;48.878;8.334;2023-04-23T10:37:49;99281.78;;;18.82;49.82
30598;BME280;17365;48.878;8.334;2023-04-23T10:40:25;99281.84;;;18.99;50.17
30598;BME280;17365;48.878;8.334;2023-04-23T10:42:53;99285.91;;;19.06;51.02
30598;BME280;17365;48.878;8.334;2023-04-23T10:45:19;99276.66;;;19.35;50.02
30598;BME280;17365;48.878;8.334;2023-04-23T10:47:45;99272.91;;;19.41;50.06
30598;BME280;17365;48.878;8.334;2023-04-23T10:50:17;99281.16;;;19.14;50.33
30598;BME280;17365;48.878;8.334;2023-04-23T10:52:43;99275.09;;;19.50;50.36
30598;BME280;17365;48.878;8.334;2023-04-23T10:55:15;99265.88;;;19.60;48.91
30598;BME280;17365;48.878;8.334;2023-04-23T11:00:28;99249.22;;;19.22;49.49
30598;BME280;17365;48.878;8.334;2023-04-23T11:02:53;99257.81;;;19.44;49.08
30598;BME280;17365;48.878;8.334;2023-04-23T11:05:20;99248.13;;;19.45;50.22
30598;BME280;17365;48.878;8.334;2023-04-23T11:08:01;99235.84;;;19.99;47.52
30598;BME280;17365;48.878;8.334;2023-04-23T11:10:27;99227.59;;;19.34;47.57
30598;BME280;17365;48.878;8.334;2023-04-23T11:12:54;99225.22;;;19.30;48.85
30598;BME280;17365;48.878;8.334;2023-04-23T11:15:20;99226.63;;;19.37;48.01
30598;BME280;17365;48.878;8.334;2023-04-23T11:22:38;99205.09;;;19.65;49.18
30598;BME280;17365;48.878;8.334;2023-04-23T11:25:04;99202.31;;;19.85;47.90
30598;BME280;17365;48.878;8.334;2023-04-23T11:27:32;99186.34;;;20.56;47.39
30598;BME280;17365;48.878;8.334;2023-04-23T11:29:58;99179.97;;;20.60;46.64
30598;BME280;17365;48.878;8.334;2023-04-23T11:32:23;99183.28;;;20.48;45.94
30598;BME280;17365;48.878;8.334;2023-04-23T11:34:48;99176.47;;;20.44;45.74
30598;BME280;17365;48.878;8.334;2023-04-23T11:37:15;99176.41;;;19.60;47.18
30598;BME280;17365;48.878;8.334;2023-04-23T11:39:41;99169.56;;;19.91;47.40
30598;BME280;17365;48.878;8.334;2023-04-23T11:42:14;99174.91;;;20.06;46.84
30598;BME280;17365;48.878;8.334;2023-04-23T11:44:40;99166.97;;;20.24;47.01
30598;BME280;17365;48.878;8.334;2023-04-23T11:47:08;99162.91;;;20.34;47.52
30598;BME280;17365;48.878;8.334;2023-04-23T11:49:35;99157.03;;;20.93;46.05
30598;BME280;17365;48.878;8.334;2023-04-23T11:52:01;99151.25;;;21.03;45.15
30598;BME280;17365;48.878;8.334;2023-04-23T11:54:27;99149.28;;;20.59;45.43
30598;BME280;17365;48.878;8.334;2023-04-23T11:56:53;99142.66;;;21.31;45.13
30598;BME280;17365;48.878;8.334;2023-04-23T11:59:19;99128.75;;;21.43;45.15
30598;BME280;17365;48.878;8.334;2023-04-23T12:01:45;99133.97;;;21.59;43.79
30598;BME280;17365;48.878;8.334;2023-04-23T12:04:15;99124.06;;;20.38;44.53
30598;BME280;17365;48.878;8.334;2023-04-23T12:06:41;99118.03;;;20.53;45.64
30598;BME280;17365;48.878;8.334;2023-04-23T12:09:07;99116.56;;;20.79;44.49
30598;BME280;17365;48.878;8.334;2023-04-23T12:11:33;99109.56;;;20.30;45.86
30598;BME280;17365;48.878;8.334;2023-04-23T12:13:59;99114.06;;;20.28;45.04
30598;BME280;17365;48.878;8.334;2023-04-23T12:16:37;99108.78;;;20.28;45.97
30598;BME280;17365;48.878;8.334;2023-04-23T12:19:05;99109.84;;;20.09;47.41
30598;BME280;17365;48.878;8.334;2023-04-23T12:21:31;99113.56;;;20.04;46.08
30598;BME280;17365;48.878;8.334;2023-04-23T12:23:57;99101.66;;;20.30;46.28
30598;BME280;17365;48.878;8.334;2023-04-23T12:26:23;99100.81;;;20.30;46.12
30598;BME280;17365;48.878;8.334;2023-04-23T12:28:53;99105.34;;;20.11;46.43
30598;BME280;17365;48.878;8.334;2023-04-23T12:31:20;99110.22;;;19.68;45.93
30598;BME280;17365;48.878;8.334;2023-04-23T12:33:46;99103.03;;;20.04;45.83
30598;BME280;17365;48.878;8.334;2023-04-23T12:36:13;99101.91;;;20.42;44.83
30598;BME280;17365;48.878;8.334;2023-04-23T12:38:39;99101.09;;;20.57;44.25
30598;BME280;17365;48.878;8.334;2023-04-23T12:41:06;99092.91;;;20.30;44.60
30598;BME280;17365;48.878;8.334;2023-04-23T12:43:31;99091.19;;;21.08;43.66
30598;BME280;17365;48.878;8.334;2023-04-23T12:45:56;99080.41;;;20.97;42.85
30598;BME280;17365;48.878;8.334;2023-04-23T12:48:22;99083.59;;;20.56;42.97
30598;BME280;17365;48.878;8.334;2023-04-23T12:50:47;99074.03;;;20.22;43.48
30598;BME280;17365;48.878;8.334;2023-04-23T12:53:13;99057.69;;;20.15;43.18
30598;BME280;17365;48.878;8.334;2023-04-23T12:55:38;99054.66;;;20.70;43.33
30598;BME280;17365;48.878;8.334;2023-04-23T12:58:03;99062.00;;;20.49;42.99